createdAt,value
2022-12-14T00:02:08.685Z,2.87
2022-12-14T00:04:36.914Z,3.78
2022-12-14T00:07:04.753Z,2.45
2022-12-14T00:09:32.735Z,3.60
2022-12-14T00:12:04.073Z,3.20
2022-12-14T00:14:31.916Z,2.55
2022-12-14T00:17:00.106Z,3.00
2022-12-14T00:19:28.031Z,3.37
2022-12-14T00:21:56.253Z,2.55
2022-12-14T00:24:24.472Z,4.10
2022-12-14T00:26:53.055Z,3.70
2022-12-14T00:29:21.011Z,3.55
2022-12-14T00:31:50.402Z,2.78
2022-12-14T00:34:18.241Z,2.90
2022-12-14T00:36:48.991Z,2.62
2022-12-14T00:39:17.244Z,2.75
2022-12-14T00:41:44.945Z,3.78
2022-12-14T00:44:12.739Z,3.58
2022-12-14T00:46:41.254Z,2.78
2022-12-14T00:49:12.313Z,2.75
2022-12-14T00:51:43.512Z,3.20
2022-12-14T00:54:11.394Z,4.40
2022-12-14T00:56:39.179Z,2.85
2022-12-14T00:59:10.282Z,3.95
2022-12-14T01:01:38.156Z,3.62
2022-12-14T01:04:18.148Z,2.37
2022-12-14T01:06:48.607Z,2.70
2022-12-14T01:09:17.500Z,2.37
2022-12-14T01:11:45.862Z,3.92
2022-12-14T01:14:16.470Z,3.55
2022-12-14T01:16:44.345Z,3.40
2022-12-14T01:19:13.707Z,3.97
2022-12-14T01:21:42.486Z,3.45
2022-12-14T01:24:10.598Z,3.37
2022-12-14T01:26:40.277Z,3.70
2022-12-14T01:29:08.759Z,4.05
2022-12-14T01:31:38.348Z,2.78
2022-12-14T01:34:06.609Z,2.72
2022-12-14T01:36:35.987Z,3.08
2022-12-14T01:39:13.902Z,3.47
2022-12-14T01:41:43.506Z,3.20
2022-12-14T01:44:11.350Z,2.47
2022-12-14T01:46:51.041Z,2.87
2022-12-14T01:49:43.174Z,2.75
2022-12-14T01:52:21.717Z,3.10
2022-12-14T01:55:04.013Z,3.92
2022-12-14T01:57:55.632Z,3.20
2022-12-14T02:00:24.105Z,3.08
2022-12-14T02:03:30.850Z,3.53
2022-12-14T02:06:12.527Z,3.30
2022-12-14T02:08:43.617Z,4.00
2022-12-14T02:11:11.713Z,2.85
2022-12-14T02:13:43.475Z,4.35
2022-12-14T02:16:11.907Z,4.75
2022-12-14T02:18:39.743Z,4.47
2022-12-14T02:21:10.159Z,3.28
2022-12-14T02:24:03.131Z,3.83
2022-12-14T02:26:55.865Z,2.55
2022-12-14T02:29:38.631Z,4.50
2022-12-14T02:32:36.677Z,3.65
2022-12-14T02:35:27.070Z,3.33
2022-12-14T02:38:13.160Z,3.53
2022-12-14T02:41:05.354Z,4.97
2022-12-14T02:43:42.181Z,3.78
2022-12-14T02:46:27.107Z,4.47
2022-12-14T02:49:08.321Z,4.32
2022-12-14T02:51:42.629Z,4.05
2022-12-14T02:54:20.713Z,4.65
2022-12-14T02:56:56.525Z,5.32
2022-12-14T02:59:25.006Z,4.43
2022-12-14T03:01:54.722Z,4.72
2022-12-14T03:04:25.830Z,4.93
2022-12-14T03:07:05.448Z,5.10
2022-12-14T03:09:33.856Z,5.90
2022-12-14T03:12:11.112Z,5.00
2022-12-14T03:14:46.776Z,5.35
2022-12-14T03:17:35.840Z,5.18
2022-12-14T03:20:11.891Z,4.18
2022-12-14T03:22:45.432Z,4.05
2022-12-14T03:25:16.936Z,4.07
2022-12-14T03:27:53.896Z,5.43
2022-12-14T03:30:44.315Z,3.83
2022-12-14T03:33:19.216Z,5.20
2022-12-14T03:35:57.133Z,3.60
2022-12-14T03:38:40.031Z,3.70
2022-12-14T03:41:17.276Z,3.50
2022-12-14T03:43:49.834Z,3.62
2022-12-14T03:46:49.742Z,4.70
2022-12-14T03:49:44.117Z,4.35
2022-12-14T03:52:27.473Z,4.60
2022-12-14T03:55:29.663Z,4.28
2022-12-14T03:58:09.137Z,4.12
2022-12-14T04:00:58.096Z,5.25
2022-12-14T04:03:47.620Z,4.97
2022-12-14T04:06:19.981Z,4.87
2022-12-14T04:08:48.104Z,4.62
2022-12-14T04:11:37.537Z,3.97
2022-12-14T04:14:37.645Z,4.50
2022-12-14T04:17:31.824Z,4.87
2022-12-14T04:20:39.515Z,4.45
2022-12-14T04:23:51.827Z,4.25
2022-12-14T04:26:28.029Z,4.35
2022-12-14T04:29:23.735Z,4.10
2022-12-14T04:32:01.173Z,4.30
2022-12-14T04:34:31.654Z,3.28
2022-12-14T04:37:04.307Z,5.10
2022-12-14T04:39:43.305Z,5.90
2022-12-14T04:42:14.072Z,4.32
2022-12-14T04:44:56.135Z,5.10
2022-12-14T04:47:35.392Z,4.87
2022-12-14T04:50:30.962Z,5.28
2022-12-14T04:53:05.744Z,3.75
2022-12-14T04:55:59.041Z,4.35
2022-12-14T04:58:30.360Z,4.37
2022-12-14T05:01:19.675Z,3.85
2022-12-14T05:04:25.735Z,4.07
2022-12-14T05:07:18.528Z,4.82
2022-12-14T05:10:14.500Z,5.00
2022-12-14T05:12:54.304Z,4.60
2022-12-14T05:15:28.462Z,4.75
2022-12-14T05:17:56.953Z,4.55
2022-12-14T05:20:25.174Z,3.35
2022-12-14T05:22:53.045Z,3.70
2022-12-14T05:25:20.868Z,4.07
2022-12-14T05:27:48.922Z,3.90
2022-12-14T05:30:17.253Z,3.62
2022-12-14T05:32:45.083Z,3.75
2022-12-14T05:35:14.238Z,3.58
2022-12-14T05:37:43.378Z,3.95
2022-12-14T05:40:11.919Z,4.05
2022-12-14T05:42:44.783Z,4.93
2022-12-14T05:45:15.350Z,3.70
2022-12-14T05:47:43.457Z,3.83
2022-12-14T05:50:11.287Z,4.15
2022-12-14T05:52:38.987Z,4.03
2022-12-14T05:55:07.580Z,4.28
2022-12-14T05:57:35.357Z,4.18
2022-12-14T06:00:04.777Z,3.60
2022-12-14T06:02:32.474Z,3.85
2022-12-14T06:05:00.647Z,2.97
2022-12-14T06:07:28.562Z,4.78
2022-12-14T06:09:56.421Z,4.18
2022-12-14T06:12:24.602Z,4.00
2022-12-14T06:14:55.337Z,3.20
2022-12-14T06:17:23.185Z,3.87
2022-12-14T06:19:52.115Z,4.47
2022-12-14T06:22:19.890Z,3.58
2022-12-14T06:24:47.682Z,3.50
2022-12-14T06:27:15.886Z,3.80
2022-12-14T06:29:43.685Z,3.30
2022-12-14T06:32:11.468Z,3.35
2022-12-14T06:34:42.316Z,4.50
2022-12-14T06:37:14.482Z,5.12
2022-12-14T06:39:42.602Z,5.22
2022-12-14T06:42:11.744Z,2.80
2022-12-14T06:44:39.414Z,4.60
2022-12-14T06:47:07.620Z,3.90
2022-12-14T06:49:35.761Z,5.18
2022-12-14T06:52:03.631Z,3.85
2022-12-14T06:54:31.841Z,4.05
2022-12-14T06:56:59.710Z,4.10
2022-12-14T06:59:27.745Z,5.75
2022-12-14T07:01:55.922Z,4.40
2022-12-14T07:04:24.878Z,5.07
2022-12-14T07:06:52.764Z,6.22
2022-12-14T07:09:21.067Z,4.80
2022-12-14T07:11:51.973Z,5.75
2022-12-14T07:14:21.889Z,5.75
2022-12-14T07:16:49.798Z,6.20
2022-12-14T07:19:18.420Z,6.60
2022-12-14T07:21:46.611Z,6.43
2022-12-14T07:24:14.988Z,6.60
2022-12-14T07:26:42.808Z,5.22
2022-12-14T07:29:12.338Z,7.35
2022-12-14T07:31:40.397Z,6.60
2022-12-14T07:34:08.351Z,6.30
2022-12-14T07:36:39.772Z,6.87
2022-12-14T07:39:08.334Z,5.82
2022-12-14T07:41:36.436Z,5.45
2022-12-14T07:44:04.208Z,5.82
2022-12-14T07:46:32.677Z,6.15
2022-12-14T07:49:01.824Z,6.47
2022-12-14T07:51:38.552Z,6.18
2022-12-14T07:54:07.424Z,5.97
2022-12-14T07:56:39.928Z,7.10
2022-12-14T08:01:37.755Z,5.57
2022-12-14T08:04:11.872Z,5.70
2022-12-14T08:06:40.561Z,5.75
2022-12-14T08:09:10.404Z,5.28
2022-12-14T08:11:38.927Z,5.30
2022-12-14T08:14:12.298Z,5.32
2022-12-14T08:16:44.280Z,5.37
2022-12-14T08:19:13.353Z,6.20
2022-12-14T08:21:42.013Z,6.10
2022-12-14T08:24:13.771Z,5.65
2022-12-14T08:26:41.976Z,5.97
2022-12-14T08:29:12.570Z,5.60
2022-12-14T08:31:41.154Z,4.85
2022-12-14T08:34:10.193Z,4.50
2022-12-14T08:36:38.015Z,7.12
2022-12-14T08:39:08.752Z,5.12
2022-12-14T08:41:37.288Z,6.10
2022-12-14T08:44:05.500Z,5.87
2022-12-14T08:46:35.346Z,5.35
2022-12-14T08:49:04.176Z,6.50
2022-12-14T08:51:32.215Z,5.60
2022-12-14T08:54:00.128Z,5.28
2022-12-14T08:56:28.955Z,5.00
2022-12-14T08:58:57.473Z,6.65
2022-12-14T09:01:33.945Z,5.25
2022-12-14T09:04:08.682Z,7.18
2022-12-14T09:06:38.289Z,5.60
2022-12-14T09:09:13.622Z,7.90
2022-12-14T09:11:45.279Z,6.62
2022-12-14T09:14:13.711Z,6.25
2022-12-14T09:16:41.858Z,7.25
2022-12-14T09:19:09.883Z,7.07
2022-12-14T09:21:38.844Z,6.82
2022-12-14T09:24:07.240Z,6.60
2022-12-14T09:26:35.226Z,5.62
2022-12-14T09:29:03.830Z,6.72
2022-12-14T09:31:31.610Z,6.05
2022-12-14T09:33:59.919Z,5.90
2022-12-14T09:36:29.278Z,7.57
2022-12-14T09:38:58.165Z,8.00
2022-12-14T09:41:34.836Z,7.45
2022-12-14T09:44:25.381Z,6.62
2022-12-14T09:47:02.026Z,6.90
2022-12-14T09:49:40.530Z,7.85
2022-12-14T09:52:16.918Z,7.00
2022-12-14T09:54:49.794Z,6.82
2022-12-14T09:59:48.792Z,7.40
2022-12-14T10:02:31.881Z,6.22
2022-12-14T10:05:35.040Z,8.57
2022-12-14T10:08:36.145Z,6.62
2022-12-14T10:11:18.610Z,8.23
2022-12-14T10:14:08.456Z,8.32
2022-12-14T10:16:54.079Z,7.35
2022-12-14T10:19:32.509Z,5.78
2022-12-14T10:22:12.388Z,8.00
2022-12-14T10:25:13.419Z,7.30
2022-12-14T10:28:09.938Z,7.70
2022-12-14T10:30:33.846Z,9.13
2022-12-14T10:33:13.990Z,7.82
2022-12-14T10:35:53.180Z,7.68
2022-12-14T10:38:33.213Z,7.82
2022-12-14T10:41:16.544Z,6.85
2022-12-14T10:43:56.925Z,6.65
2022-12-14T10:46:36.626Z,6.50
2022-12-14T10:49:20.874Z,7.53
2022-12-14T10:51:53.004Z,8.48
2022-12-14T10:54:39.332Z,7.80
2022-12-14T10:57:07.164Z,6.50
2022-12-14T10:59:42.417Z,8.38
2022-12-14T11:02:22.646Z,9.32
2022-12-14T11:05:11.808Z,7.93
2022-12-14T11:07:43.669Z,8.73
2022-12-14T11:10:27.472Z,7.50
2022-12-14T11:13:27.276Z,10.38
2022-12-14T11:15:57.764Z,7.25
2022-12-14T11:18:31.743Z,9.02
2022-12-14T11:21:03.163Z,11.35
2022-12-14T11:23:36.112Z,9.70
2022-12-14T11:26:15.685Z,7.93
2022-12-14T11:28:51.973Z,6.82
2022-12-14T11:31:52.726Z,7.68
2022-12-14T11:34:39.483Z,8.50
2022-12-14T11:37:30.139Z,9.90
2022-12-14T11:40:07.291Z,11.60
2022-12-14T11:42:37.216Z,10.50
2022-12-14T11:45:26.805Z,12.25
2022-12-14T11:48:16.196Z,10.23
2022-12-14T11:50:46.023Z,7.90
2022-12-14T11:53:16.937Z,10.73
2022-12-14T11:55:53.473Z,8.80
2022-12-14T11:58:27.839Z,9.90
2022-12-14T12:01:00.776Z,10.85
2022-12-14T12:03:38.477Z,9.07
2022-12-14T12:06:09.435Z,9.77
2022-12-14T12:08:42.750Z,9.25
2022-12-14T12:11:22.591Z,10.38
2022-12-14T12:13:52.684Z,9.70
2022-12-14T12:16:23.848Z,8.80
2022-12-14T12:19:12.981Z,10.18
2022-12-14T12:21:43.433Z,9.52
2022-12-14T12:24:19.378Z,9.55
2022-12-14T12:26:49.986Z,10.82
2022-12-14T12:29:43.675Z,8.70
2022-12-14T12:32:27.107Z,9.23
2022-12-14T12:35:12.022Z,6.85
2022-12-14T12:37:49.347Z,7.68
2022-12-14T12:40:34.582Z,10.05
2022-12-14T12:43:41.176Z,8.18
2022-12-14T12:46:20.601Z,9.52
2022-12-14T12:48:59.398Z,8.23
2022-12-14T12:51:40.578Z,7.87
2022-12-14T12:54:16.508Z,7.75
2022-12-14T12:56:58.194Z,7.43
2022-12-14T12:59:37.800Z,7.70
2022-12-14T13:02:36.434Z,7.53
2022-12-14T13:05:45.286Z,7.82
2022-12-14T13:08:17.092Z,6.65
2022-12-14T13:11:17.163Z,6.35
2022-12-14T13:13:37.015Z,5.97
2022-12-14T13:16:30.071Z,6.65
2022-12-14T13:19:40.973Z,8.13
2022-12-14T13:22:07.205Z,8.25
2022-12-14T13:24:37.131Z,7.72
2022-12-14T13:28:01.747Z,7.43
2022-12-14T13:30:44.765Z,5.45
2022-12-14T13:33:51.905Z,6.53
2022-12-14T13:36:52.086Z,4.95
2022-12-14T13:40:04.298Z,6.15
2022-12-14T13:42:57.854Z,5.60
2022-12-14T13:45:39.626Z,5.62
2022-12-14T13:48:28.319Z,6.70
2022-12-14T13:51:06.710Z,7.12
2022-12-14T13:53:40.870Z,5.30
2022-12-14T13:56:32.605Z,4.62
2022-12-14T14:01:50.529Z,5.45
2022-12-14T14:04:27.437Z,4.97
2022-12-14T14:07:15.242Z,4.40
2022-12-14T14:09:55.704Z,11.38
2022-12-14T14:12:59.027Z,15.65
2022-12-14T14:16:27.934Z,9.32
2022-12-14T14:19:12.782Z,9.18
2022-12-14T14:22:06.258Z,5.87
2022-12-14T14:24:52.782Z,4.70
2022-12-14T14:27:26.338Z,3.83
2022-12-14T14:29:55.640Z,3.72
2022-12-14T14:32:43.164Z,3.08
2022-12-14T14:35:36.603Z,3.08
2022-12-14T14:38:28.412Z,2.70
2022-12-14T14:41:29.315Z,2.28
2022-12-14T14:44:03.518Z,2.58
2022-12-14T14:46:41.284Z,2.12
2022-12-14T14:49:24.900Z,2.42
2022-12-14T14:54:56.180Z,3.10
2022-12-14T14:57:35.404Z,2.85
2022-12-14T15:00:07.123Z,2.33
2022-12-14T15:02:43.363Z,3.00
2022-12-14T15:08:39.618Z,2.35
2022-12-14T15:11:18.228Z,4.10
2022-12-14T15:14:26.288Z,2.75
2022-12-14T15:16:57.540Z,2.53
2022-12-14T15:19:28.153Z,1.80
2022-12-14T15:22:07.074Z,1.70
2022-12-14T15:24:40.724Z,2.53
2022-12-14T15:27:24.558Z,2.62
2022-12-14T15:29:55.041Z,3.10
2022-12-14T15:32:24.662Z,2.83
2022-12-14T15:35:26.860Z,2.45
2022-12-14T15:38:07.128Z,2.42
2022-12-14T15:40:35.916Z,2.47
2022-12-14T15:43:22.306Z,2.78
2022-12-14T15:45:56.008Z,2.60
2022-12-14T15:48:31.308Z,2.53
2022-12-14T15:51:04.212Z,2.50
2022-12-14T15:53:55.269Z,2.35
2022-12-14T15:56:40.297Z,2.62
2022-12-14T15:59:31.931Z,2.25
2022-12-14T16:02:18.260Z,1.73
2022-12-14T16:04:47.363Z,2.30
2022-12-14T16:07:28.822Z,2.50
2022-12-14T16:10:04.068Z,2.55
2022-12-14T16:12:44.657Z,1.77
2022-12-14T16:15:26.288Z,2.78
2022-12-14T16:18:01.662Z,1.85
2022-12-14T16:20:36.267Z,2.40
2022-12-14T16:23:07.201Z,2.85
2022-12-14T16:25:37.723Z,2.20
2022-12-14T16:28:21.592Z,2.65
2022-12-14T16:30:56.829Z,2.10
2022-12-14T16:33:25.727Z,2.62
2022-12-14T16:36:07.713Z,3.22
2022-12-14T16:38:56.989Z,3.20
2022-12-14T16:41:37.220Z,3.47
2022-12-14T16:44:08.247Z,2.10
2022-12-14T16:46:36.886Z,2.15
2022-12-14T16:49:44.518Z,1.90
2022-12-14T16:52:15.741Z,2.70
2022-12-14T16:54:43.999Z,2.10
2022-12-14T16:57:23.453Z,1.80
2022-12-14T17:00:01.457Z,2.22
2022-12-14T17:02:36.290Z,1.75
2022-12-14T17:05:17.933Z,3.65
2022-12-14T17:07:45.989Z,2.37
2022-12-14T17:10:20.183Z,1.30
2022-12-14T17:12:49.407Z,2.50
2022-12-14T17:15:19.895Z,1.27
2022-12-14T17:17:51.766Z,2.22
2022-12-14T17:20:29.498Z,1.77
2022-12-14T17:23:00.492Z,2.55
2022-12-14T17:25:30.264Z,1.40
2022-12-14T17:27:58.979Z,2.72
2022-12-14T17:30:27.582Z,3.85
2022-12-14T17:32:56.029Z,2.83
2022-12-14T17:35:26.229Z,2.20
2022-12-14T17:37:54.153Z,2.75
2022-12-14T17:40:22.517Z,2.87
2022-12-14T17:42:53.720Z,3.03
2022-12-14T17:45:24.865Z,2.90
2022-12-14T17:47:53.089Z,2.10
2022-12-14T17:50:22.353Z,2.87
2022-12-14T17:52:53.603Z,2.30
2022-12-14T17:55:24.703Z,3.83
2022-12-14T17:57:52.587Z,3.22
2022-12-14T18:00:42.362Z,2.92
2022-12-14T18:05:58.552Z,2.60
2022-12-14T18:08:27.144Z,2.10
2022-12-14T18:11:01.318Z,3.58
2022-12-14T18:13:31.738Z,2.05
2022-12-14T18:16:00.809Z,3.05
2022-12-14T18:18:29.851Z,2.55
2022-12-14T18:21:01.857Z,3.28
2022-12-14T18:23:31.064Z,2.72
2022-12-14T18:28:46.972Z,2.42
2022-12-14T18:31:36.801Z,2.92
2022-12-14T18:34:05.615Z,2.22
2022-12-14T18:36:33.508Z,2.62
2022-12-14T18:39:01.510Z,3.42
2022-12-14T18:41:31.404Z,2.53
2022-12-14T18:46:49.315Z,3.20
2022-12-14T18:49:17.405Z,3.12
2022-12-14T18:51:45.286Z,4.28
2022-12-14T18:54:13.499Z,2.30
2022-12-14T18:56:42.343Z,3.22
2022-12-14T18:59:10.161Z,2.65
2022-12-14T19:01:38.392Z,3.53
2022-12-14T19:04:07.814Z,3.72
2022-12-14T19:06:44.876Z,3.35
2022-12-14T19:09:16.953Z,2.65
2022-12-14T19:11:45.450Z,2.20
2022-12-14T19:14:13.664Z,2.37
2022-12-14T19:16:41.488Z,2.95
2022-12-14T19:19:09.653Z,2.65
2022-12-14T19:21:38.081Z,2.75
2022-12-14T19:24:08.796Z,3.60
2022-12-14T19:26:39.487Z,3.40
2022-12-14T19:29:07.387Z,2.42
2022-12-14T19:31:35.219Z,2.62
2022-12-14T19:34:03.586Z,2.53
2022-12-14T19:36:31.545Z,2.40
2022-12-14T19:38:59.600Z,2.05
2022-12-14T19:41:28.186Z,1.60
2022-12-14T19:43:57.842Z,2.37
2022-12-14T19:46:28.941Z,1.83
2022-12-14T19:48:59.454Z,2.72
2022-12-14T19:51:27.472Z,2.87
2022-12-14T19:53:55.867Z,2.53
2022-12-14T19:56:24.757Z,2.15
2022-12-14T19:59:01.105Z,2.45
2022-12-14T20:01:39.714Z,1.37
2022-12-14T20:04:11.920Z,1.60
2022-12-14T20:06:40.121Z,2.08
2022-12-14T20:09:08.622Z,2.17
2022-12-14T20:11:41.187Z,1.85
2022-12-14T20:14:10.417Z,2.40
2022-12-14T20:16:39.297Z,1.85
2022-12-14T20:19:07.622Z,1.92
2022-12-14T20:21:35.595Z,2.90
2022-12-14T20:24:04.241Z,3.53
2022-12-14T20:26:32.654Z,2.42
2022-12-14T20:29:06.206Z,1.83
2022-12-14T20:31:36.131Z,5.62
2022-12-14T20:34:07.584Z,2.90
2022-12-14T20:36:38.852Z,2.55
2022-12-14T20:39:10.321Z,2.67
2022-12-14T20:41:38.605Z,2.25
2022-12-14T20:44:14.064Z,2.15
2022-12-14T20:46:45.206Z,2.20
2022-12-14T20:49:19.352Z,2.28
2022-12-14T20:51:48.760Z,2.33
2022-12-14T20:54:19.928Z,2.33
2022-12-14T20:56:49.679Z,2.45
2022-12-14T20:59:17.910Z,2.70
2022-12-14T21:01:51.892Z,2.85
2022-12-14T21:04:22.621Z,3.22
2022-12-14T21:06:50.690Z,2.83
2022-12-14T21:09:18.572Z,2.35
2022-12-14T21:12:07.700Z,2.33
2022-12-14T21:14:45.019Z,2.25
2022-12-14T21:17:14.961Z,2.22
2022-12-14T21:19:45.990Z,2.30
2022-12-14T21:22:20.066Z,2.40
2022-12-14T21:25:05.675Z,2.20
2022-12-14T21:27:38.673Z,2.83
2022-12-14T21:30:10.340Z,2.92
2022-12-14T21:32:38.892Z,3.70
2022-12-14T21:35:07.773Z,3.08
2022-12-14T21:37:39.056Z,2.03
2022-12-14T21:40:08.686Z,2.12
2022-12-14T21:42:36.431Z,3.05
2022-12-14T21:45:05.206Z,2.37
2022-12-14T21:47:34.238Z,2.95
2022-12-14T21:50:02.158Z,1.98
2022-12-14T21:52:30.611Z,1.85
2022-12-14T21:55:00.113Z,2.62
2022-12-14T21:57:49.695Z,1.87
2022-12-14T22:00:19.006Z,2.17
2022-12-14T22:02:47.414Z,3.58
2022-12-14T22:05:15.587Z,2.70
2022-12-14T22:07:43.278Z,2.45
2022-12-14T22:10:11.546Z,2.45
2022-12-14T22:12:40.083Z,3.72
2022-12-14T22:15:08.610Z,2.83
2022-12-14T22:17:36.773Z,2.10
2022-12-14T22:20:05.435Z,1.42
2022-12-14T22:22:33.936Z,2.15
2022-12-14T22:25:02.268Z,2.47
2022-12-14T22:27:30.741Z,3.20
2022-12-14T22:29:58.621Z,2.65
2022-12-14T22:32:27.262Z,2.80
2022-12-14T22:34:58.201Z,3.35
2022-12-14T22:37:26.467Z,3.00
2022-12-14T22:39:54.258Z,3.75
2022-12-14T22:42:22.459Z,3.20
2022-12-14T22:44:50.708Z,3.55
2022-12-14T22:47:18.916Z,3.15
2022-12-14T22:49:47.407Z,3.55
2022-12-14T22:52:18.630Z,3.50
2022-12-14T22:54:51.706Z,3.42
2022-12-14T22:57:21.459Z,3.03
2022-12-14T22:59:56.636Z,3.15
2022-12-14T23:02:25.126Z,3.85
2022-12-14T23:04:53.081Z,3.20
2022-12-14T23:07:21.041Z,2.83
2022-12-14T23:10:10.628Z,3.95
2022-12-14T23:12:56.972Z,4.35
2022-12-14T23:15:44.000Z,2.20
2022-12-14T23:18:30.394Z,2.70
2022-12-14T23:21:16.981Z,2.92
2022-12-14T23:24:05.124Z,2.12
2022-12-14T23:26:52.666Z,1.85
2022-12-14T23:29:39.033Z,2.50
2022-12-14T23:32:25.440Z,2.25
2022-12-14T23:35:14.420Z,2.42
2022-12-14T23:38:01.088Z,2.97
2022-12-14T23:40:48.039Z,3.20
2022-12-14T23:43:37.376Z,3.70
2022-12-14T23:46:25.462Z,4.18
2022-12-14T23:49:16.023Z,4.03
2022-12-14T23:52:02.752Z,3.15
2022-12-14T23:54:49.573Z,3.30
2022-12-14T23:57:36.773Z,3.85
